sensor_id;sensor_type;location;lat;lon;timestamp;temperature;humidity
34833;DHT22;55941;50.800;4.342;2023-04-24T00:01:58;9.80;99.90
34833;DHT22;55941;50.800;4.342;2023-04-24T00:04:25;9.80;99.90
34833;DHT22;55941;50.800;4.342;2023-04-24T00:06:52;9.70;99.90
34833;DHT22;55941;50.800;4.342;2023-04-24T00:09:24;9.70;99.90
34833;DHT22;55941;50.800;4.342;2023-04-24T00:11:50;9.60;99.90
34833;DHT22;55941;50.800;4.342;2023-04-24T00:14:16;9.60;99.90
34833;DHT22;55941;50.800;4.342;2023-04-24T00:16:45;9.60;99.90
34833;DHT22;55941;50.800;4.342;2023-04-24T00:19:12;9.70;99.90
34833;DHT22;55941;50.800;4.342;2023-04-24T00:21:38;9.60;99.90
34833;DHT22;55941;50.800;4.342;2023-04-24T00:24:05;9.70;99.90
34833;DHT22;55941;50.800;4.342;2023-04-24T00:26:32;9.70;99.90
34833;DHT22;55941;50.800;4.342;2023-04-24T00:29:00;9.70;99.90
34833;DHT22;55941;50.800;4.342;2023-04-24T00:31:27;9.60;99.90
34833;DHT22;55941;50.800;4.342;2023-04-24T00:33:55;9.70;99.90
34833;DHT22;55941;50.800;4.342;2023-04-24T00:36:21;9.70;99.90
34833;DHT22;55941;50.800;4.342;2023-04-24T00:38:53;9.70;99.90
34833;DHT22;55941;50.800;4.342;2023-04-24T00:41:21;9.70;99.90
34833;DHT22;55941;50.800;4.342;2023-04-24T00:43:47;9.60;99.90
34833;DHT22;55941;50.800;4.342;2023-04-24T00:46:16;9.50;99.90
34833;DHT22;55941;50.800;4.342;2023-04-24T00:48:43;9.60;99.90
34833;DHT22;55941;50.800;4.342;2023-04-24T00:51:09;9.60;99.90
34833;DHT22;55941;50.800;4.342;2023-04-24T00:53:38;9.60;99.90
34833;DHT22;55941;50.800;4.342;2023-04-24T00:56:05;9.60;99.90
34833;DHT22;55941;50.800;4.342;2023-04-24T00:58:34;9.70;99.90
34833;DHT22;55941;50.800;4.342;2023-04-24T01:01:00;9.50;99.90
34833;DHT22;55941;50.800;4.342;2023-04-24T01:03:29;9.50;99.90
34833;DHT22;55941;50.800;4.342;2023-04-24T01:05:59;9.50;99.90
34833;DHT22;55941;50.800;4.342;2023-04-24T01:08:28;9.50;99.90
34833;DHT22;55941;50.800;4.342;2023-04-24T01:10:54;9.40;99.90
34833;DHT22;55941;50.800;4.342;2023-04-24T01:13:20;9.30;99.90
34833;DHT22;55941;50.800;4.342;2023-04-24T01:15:48;9.20;99.90
34833;DHT22;55941;50.800;4.342;2023-04-24T01:18:14;9.30;99.90
34833;DHT22;55941;50.800;4.342;2023-04-24T01:20:48;9.30;99.90
34833;DHT22;55941;50.800;4.342;2023-04-24T01:23:17;9.30;99.90
34833;DHT22;55941;50.800;4.342;2023-04-24T01:25:44;9.30;99.90
34833;DHT22;55941;50.800;4.342;2023-04-24T01:28:10;9.30;99.90
34833;DHT22;55941;50.800;4.342;2023-04-24T01:30:39;9.20;99.90
34833;DHT22;55941;50.800;4.342;2023-04-24T01:33:08;9.10;99.90
34833;DHT22;55941;50.800;4.342;2023-04-24T01:35:35;9.10;99.90
34833;DHT22;55941;50.800;4.342;2023-04-24T01:38:01;9.10;99.90
34833;DHT22;55941;50.800;4.342;2023-04-24T01:40:30;9.10;99.90
34833;DHT22;55941;50.800;4.342;2023-04-24T01:42:56;9.10;99.90
34833;DHT22;55941;50.800;4.342;2023-04-24T01:45:23;9.00;99.90
34833;DHT22;55941;50.800;4.342;2023-04-24T01:47:49;9.10;99.90
34833;DHT22;55941;50.800;4.342;2023-04-24T01:50:16;9.20;99.90
34833;DHT22;55941;50.800;4.342;2023-04-24T01:52:42;9.20;99.90
34833;DHT22;55941;50.800;4.342;2023-04-24T01:55:11;9.00;99.90
34833;DHT22;55941;50.800;4.342;2023-04-24T01:57:39;9.00;99.90
34833;DHT22;55941;50.800;4.342;2023-04-24T02:00:06;9.10;99.90
34833;DHT22;55941;50.800;4.342;2023-04-24T02:02:33;9.00;99.90
34833;DHT22;55941;50.800;4.342;2023-04-24T02:04:59;9.00;99.90
34833;DHT22;55941;50.800;4.342;2023-04-24T02:07:24;9.00;99.90
34833;DHT22;55941;50.800;4.342;2023-04-24T02:09:50;9.00;99.90
34833;DHT22;55941;50.800;4.342;2023-04-24T02:12:16;8.90;99.90
34833;DHT22;55941;50.800;4.342;2023-04-24T02:14:43;8.90;99.90
34833;DHT22;55941;50.800;4.342;2023-04-24T02:17:10;9.00;99.90
34833;DHT22;55941;50.800;4.342;2023-04-24T02:19:37;8.90;99.90
34833;DHT22;55941;50.800;4.342;2023-04-24T02:22:04;8.90;99.90
34833;DHT22;55941;50.800;4.342;2023-04-24T02:24:31;8.80;99.90
34833;DHT22;55941;50.800;4.342;2023-04-24T02:26:57;8.90;99.90
34833;DHT22;55941;50.800;4.342;2023-04-24T02:29:23;8.90;99.90
34833;DHT22;55941;50.800;4.342;2023-04-24T02:31:49;8.90;99.90
34833;DHT22;55941;50.800;4.342;2023-04-24T02:34:15;8.90;99.90
34833;DHT22;55941;50.800;4.342;2023-04-24T02:36:41;9.00;99.90
34833;DHT22;55941;50.800;4.342;2023-04-24T02:39:07;9.00;99.90
34833;DHT22;55941;50.800;4.342;2023-04-24T02:41:34;9.00;99.90
34833;DHT22;55941;50.800;4.342;2023-04-24T02:44:01;8.90;99.90
34833;DHT22;55941;50.800;4.342;2023-04-24T02:46:28;8.90;99.90
34833;DHT22;55941;50.800;4.342;2023-04-24T02:48:54;8.90;99.90
34833;DHT22;55941;50.800;4.342;2023-04-24T02:51:22;8.90;99.90
34833;DHT22;55941;50.800;4.342;2023-04-24T02:53:49;8.90;99.90
34833;DHT22;55941;50.800;4.342;2023-04-24T02:56:15;8.90;99.90
34833;DHT22;55941;50.800;4.342;2023-04-24T02:58:41;8.80;99.90
34833;DHT22;55941;50.800;4.342;2023-04-24T03:01:10;8.80;99.90
34833;DHT22;55941;50.800;4.342;2023-04-24T03:03:38;8.70;99.90
34833;DHT22;55941;50.800;4.342;2023-04-24T03:06:05;8.80;99.90
34833;DHT22;55941;50.800;4.342;2023-04-24T03:08:31;8.80;99.90
34833;DHT22;55941;50.800;4.342;2023-04-24T03:10:59;8.80;99.90
34833;DHT22;55941;50.800;4.342;2023-04-24T03:13:25;8.90;99.90
34833;DHT22;55941;50.800;4.342;2023-04-24T03:15:51;8.90;99.90
34833;DHT22;55941;50.800;4.342;2023-04-24T03:18:18;8.80;99.90
34833;DHT22;55941;50.800;4.342;2023-04-24T03:20:45;8.80;99.90
34833;DHT22;55941;50.800;4.342;2023-04-24T03:23:13;8.70;99.90
34833;DHT22;55941;50.800;4.342;2023-04-24T03:25:38;8.70;99.90
34833;DHT22;55941;50.800;4.342;2023-04-24T03:28:05;8.80;99.90
34833;DHT22;55941;50.800;4.342;2023-04-24T03:30:34;8.70;99.90
34833;DHT22;55941;50.800;4.342;2023-04-24T03:33:03;8.70;99.90
34833;DHT22;55941;50.800;4.342;2023-04-24T03:35:30;8.70;99.90
34833;DHT22;55941;50.800;4.342;2023-04-24T03:37:57;8.70;99.90
34833;DHT22;55941;50.800;4.342;2023-04-24T03:40:22;8.70;99.90
34833;DHT22;55941;50.800;4.342;2023-04-24T03:42:48;8.70;99.90
34833;DHT22;55941;50.800;4.342;2023-04-24T03:45:14;8.70;99.90
34833;DHT22;55941;50.800;4.342;2023-04-24T03:47:40;8.70;99.90
34833;DHT22;55941;50.800;4.342;2023-04-24T03:50:06;8.80;99.90
34833;DHT22;55941;50.800;4.342;2023-04-24T03:52:34;8.70;99.90
34833;DHT22;55941;50.800;4.342;2023-04-24T03:55:00;8.80;99.90
34833;DHT22;55941;50.800;4.342;2023-04-24T03:57:27;8.90;99.90
34833;DHT22;55941;50.800;4.342;2023-04-24T03:59:53;8.90;99.90
34833;DHT22;55941;50.800;4.342;2023-04-24T04:02:20;8.90;99.90
34833;DHT22;55941;50.800;4.342;2023-04-24T04:04:46;9.00;99.90
34833;DHT22;55941;50.800;4.342;2023-04-24T04:07:12;9.10;99.90
34833;DHT22;55941;50.800;4.342;2023-04-24T04:09:38;9.10;99.90
34833;DHT22;55941;50.800;4.342;2023-04-24T04:12:05;9.10;99.90
34833;DHT22;55941;50.800;4.342;2023-04-24T04:14:32;9.10;99.90
34833;DHT22;55941;50.800;4.342;2023-04-24T04:16:58;9.10;99.90
34833;DHT22;55941;50.800;4.342;2023-04-24T04:19:24;9.20;99.90
34833;DHT22;55941;50.800;4.342;2023-04-24T04:21:50;9.20;99.90
34833;DHT22;55941;50.800;4.342;2023-04-24T04:24:19;9.20;99.90
34833;DHT22;55941;50.800;4.342;2023-04-24T04:26:46;9.30;99.90
34833;DHT22;55941;50.800;4.342;2023-04-24T04:29:13;9.30;99.90
34833;DHT22;55941;50.800;4.342;2023-04-24T04:31:39;9.30;99.90
34833;DHT22;55941;50.800;4.342;2023-04-24T04:34:06;9.30;99.90
34833;DHT22;55941;50.800;4.342;2023-04-24T04:36:33;9.30;99.90
34833;DHT22;55941;50.800;4.342;2023-04-24T04:39:03;9.30;99.90
34833;DHT22;55941;50.800;4.342;2023-04-24T04:41:31;9.40;99.90
34833;DHT22;55941;50.800;4.342;2023-04-24T04:43:58;9.30;99.90
34833;DHT22;55941;50.800;4.342;2023-04-24T04:46:31;9.30;99.90
34833;DHT22;55941;50.800;4.342;2023-04-24T04:48:59;9.20;99.90
34833;DHT22;55941;50.800;4.342;2023-04-24T04:51:26;9.00;99.90
34833;DHT22;55941;50.800;4.342;2023-04-24T04:53:51;9.00;99.90
34833;DHT22;55941;50.800;4.342;2023-04-24T04:56:17;9.00;99.90
34833;DHT22;55941;50.800;4.342;2023-04-24T04:58:43;9.10;99.90
34833;DHT22;55941;50.800;4.342;2023-04-24T05:01:10;9.10;99.90
34833;DHT22;55941;50.800;4.342;2023-04-24T05:03:36;9.10;99.90
34833;DHT22;55941;50.800;4.342;2023-04-24T05:06:03;9.10;99.90
34833;DHT22;55941;50.800;4.342;2023-04-24T05:08:30;9.20;99.90
34833;DHT22;55941;50.800;4.342;2023-04-24T05:10:56;9.20;99.90
34833;DHT22;55941;50.800;4.342;2023-04-24T05:13:22;9.10;99.90
34833;DHT22;55941;50.800;4.342;2023-04-24T05:15:49;9.00;99.90
34833;DHT22;55941;50.800;4.342;2023-04-24T05:18:14;9.00;99.90
34833;DHT22;55941;50.800;4.342;2023-04-24T05:20:41;9.00;99.90
34833;DHT22;55941;50.800;4.342;2023-04-24T05:23:09;9.10;99.90
34833;DHT22;55941;50.800;4.342;2023-04-24T05:25:35;9.00;99.90
34833;DHT22;55941;50.800;4.342;2023-04-24T05:28:02;9.20;99.90
34833;DHT22;55941;50.800;4.342;2023-04-24T05:30:28;9.20;99.90
34833;DHT22;55941;50.800;4.342;2023-04-24T05:32:54;9.20;99.90
34833;DHT22;55941;50.800;4.342;2023-04-24T05:35:20;9.20;99.90
34833;DHT22;55941;50.800;4.342;2023-04-24T05:37:45;9.20;99.90
34833;DHT22;55941;50.800;4.342;2023-04-24T05:40:11;9.20;99.90
34833;DHT22;55941;50.800;4.342;2023-04-24T05:42:38;9.30;99.90
34833;DHT22;55941;50.800;4.342;2023-04-24T05:45:04;9.20;99.90
34833;DHT22;55941;50.800;4.342;2023-04-24T05:47:31;9.20;99.90
34833;DHT22;55941;50.800;4.342;2023-04-24T05:49:57;9.20;99.90
34833;DHT22;55941;50.800;4.342;2023-04-24T05:52:23;9.20;99.90
34833;DHT22;55941;50.800;4.342;2023-04-24T05:54:48;9.10;99.90
34833;DHT22;55941;50.800;4.342;2023-04-24T05:57:14;9.20;99.90
34833;DHT22;55941;50.800;4.342;2023-04-24T05:59:40;9.20;99.90
34833;DHT22;55941;50.800;4.342;2023-04-24T06:02:07;9.20;99.90
34833;DHT22;55941;50.800;4.342;2023-04-24T06:04:33;9.20;99.90
34833;DHT22;55941;50.800;4.342;2023-04-24T06:07:01;9.20;99.90
34833;DHT22;55941;50.800;4.342;2023-04-24T06:09:29;9.20;99.90
34833;DHT22;55941;50.800;4.342;2023-04-24T06:11:56;9.20;99.90
34833;DHT22;55941;50.800;4.342;2023-04-24T06:14:21;9.10;99.90
34833;DHT22;55941;50.800;4.342;2023-04-24T06:16:48;9.10;99.90
34833;DHT22;55941;50.800;4.342;2023-04-24T06:19:14;9.00;99.90
34833;DHT22;55941;50.800;4.342;2023-04-24T06:21:41;8.90;99.90
34833;DHT22;55941;50.800;4.342;2023-04-24T06:24:06;9.00;99.90
34833;DHT22;55941;50.800;4.342;2023-04-24T06:26:32;8.90;99.90
34833;DHT22;55941;50.800;4.342;2023-04-24T06:28:58;8.90;99.90
34833;DHT22;55941;50.800;4.342;2023-04-24T06:31:26;8.90;99.90
34833;DHT22;55941;50.800;4.342;2023-04-24T06:33:51;8.80;99.90
34833;DHT22;55941;50.800;4.342;2023-04-24T06:36:17;8.80;99.90
34833;DHT22;55941;50.800;4.342;2023-04-24T06:38:43;8.80;99.90
34833;DHT22;55941;50.800;4.342;2023-04-24T06:41:10;8.80;99.90
34833;DHT22;55941;50.800;4.342;2023-04-24T06:43:35;8.80;99.90
34833;DHT22;55941;50.800;4.342;2023-04-24T06:46:01;8.90;99.90
34833;DHT22;55941;50.800;4.342;2023-04-24T06:48:29;9.00;99.90
34833;DHT22;55941;50.800;4.342;2023-04-24T06:50:55;9.10;99.90
34833;DHT22;55941;50.800;4.342;2023-04-24T06:53:20;9.20;99.90
34833;DHT22;55941;50.800;4.342;2023-04-24T06:55:46;9.10;99.90
34833;DHT22;55941;50.800;4.342;2023-04-24T06:58:12;9.20;99.90
34833;DHT22;55941;50.800;4.342;2023-04-24T07:00:38;9.20;99.90
34833;DHT22;55941;50.800;4.342;2023-04-24T07:03:04;9.20;99.90
34833;DHT22;55941;50.800;4.342;2023-04-24T07:05:32;9.30;99.90
34833;DHT22;55941;50.800;4.342;2023-04-24T07:08:00;9.30;99.90
34833;DHT22;55941;50.800;4.342;2023-04-24T07:10:26;9.40;99.90
34833;DHT22;55941;50.800;4.342;2023-04-24T07:12:54;9.50;99.90
34833;DHT22;55941;50.800;4.342;2023-04-24T07:15:20;9.60;99.90
34833;DHT22;55941;50.800;4.342;2023-04-24T07:17:46;9.70;99.90
34833;DHT22;55941;50.800;4.342;2023-04-24T07:20:12;9.70;99.90
34833;DHT22;55941;50.800;4.342;2023-04-24T07:22:39;9.70;99.90
34833;DHT22;55941;50.800;4.342;2023-04-24T07:25:06;9.70;99.90
34833;DHT22;55941;50.800;4.342;2023-04-24T07:27:33;9.70;99.90
34833;DHT22;55941;50.800;4.342;2023-04-24T07:29:59;9.80;99.90
34833;DHT22;55941;50.800;4.342;2023-04-24T07:32:25;9.80;99.90
34833;DHT22;55941;50.800;4.342;2023-04-24T07:34:51;9.60;99.90
34833;DHT22;55941;50.800;4.342;2023-04-24T07:37:17;9.60;99.90
34833;DHT22;55941;50.800;4.342;2023-04-24T07:39:43;9.50;99.90
34833;DHT22;55941;50.800;4.342;2023-04-24T07:42:09;9.60;99.90
34833;DHT22;55941;50.800;4.342;2023-04-24T07:44:36;9.60;99.90
34833;DHT22;55941;50.800;4.342;2023-04-24T07:47:02;9.60;99.90
34833;DHT22;55941;50.800;4.342;2023-04-24T07:49:28;9.60;99.90
34833;DHT22;55941;50.800;4.342;2023-04-24T07:51:53;9.70;99.90
34833;DHT22;55941;50.800;4.342;2023-04-24T07:54:19;9.80;99.90
34833;DHT22;55941;50.800;4.342;2023-04-24T07:56:48;9.90;99.90
34833;DHT22;55941;50.800;4.342;2023-04-24T07:59:14;9.80;99.90
34833;DHT22;55941;50.800;4.342;2023-04-24T08:01:40;9.90;99.90
34833;DHT22;55941;50.800;4.342;2023-04-24T08:04:06;10.00;99.90
34833;DHT22;55941;50.800;4.342;2023-04-24T08:06:32;10.10;99.90
34833;DHT22;55941;50.800;4.342;2023-04-24T08:08:58;10.20;99.90
34833;DHT22;55941;50.800;4.342;2023-04-24T08:11:24;10.30;99.90
34833;DHT22;55941;50.800;4.342;2023-04-24T08:13:50;10.30;99.90
34833;DHT22;55941;50.800;4.342;2023-04-24T08:16:17;10.40;99.90
34833;DHT22;55941;50.800;4.342;2023-04-24T08:18:42;10.30;99.90
34833;DHT22;55941;50.800;4.342;2023-04-24T08:21:08;10.20;99.90
34833;DHT22;55941;50.800;4.342;2023-04-24T08:23:34;10.30;99.90
34833;DHT22;55941;50.800;4.342;2023-04-24T08:25:59;10.30;99.90
34833;DHT22;55941;50.800;4.342;2023-04-24T08:28:25;10.20;99.90
34833;DHT22;55941;50.800;4.342;2023-04-24T08:30:51;10.20;99.90
34833;DHT22;55941;50.800;4.342;2023-04-24T08:33:23;10.40;99.90
34833;DHT22;55941;50.800;4.342;2023-04-24T08:35:49;10.40;99.90
34833;DHT22;55941;50.800;4.342;2023-04-24T08:38:16;10.50;99.90
34833;DHT22;55941;50.800;4.342;2023-04-24T08:40:42;10.40;99.90
34833;DHT22;55941;50.800;4.342;2023-04-24T08:43:09;10.40;99.90
34833;DHT22;55941;50.800;4.342;2023-04-24T08:45:36;10.40;99.90
34833;DHT22;55941;50.800;4.342;2023-04-24T08:48:02;10.40;99.90
34833;DHT22;55941;50.800;4.342;2023-04-24T08:50:29;10.40;99.90
34833;DHT22;55941;50.800;4.342;2023-04-24T08:52:57;10.50;99.90
34833;DHT22;55941;50.800;4.342;2023-04-24T08:55:24;10.60;99.90
34833;DHT22;55941;50.800;4.342;2023-04-24T08:57:51;10.80;99.90
34833;DHT22;55941;50.800;4.342;2023-04-24T09:00:20;10.90;99.90
34833;DHT22;55941;50.800;4.342;2023-04-24T09:02:48;11.00;99.90
34833;DHT22;55941;50.800;4.342;2023-04-24T09:05:16;11.20;99.90
34833;DHT22;55941;50.800;4.342;2023-04-24T09:07:45;11.30;99.90
34833;DHT22;55941;50.800;4.342;2023-04-24T09:10:14;11.50;99.90
34833;DHT22;55941;50.800;4.342;2023-04-24T09:12:41;11.50;99.90
34833;DHT22;55941;50.800;4.342;2023-04-24T09:15:08;11.50;99.90
34833;DHT22;55941;50.800;4.342;2023-04-24T09:17:34;11.50;99.90
34833;DHT22;55941;50.800;4.342;2023-04-24T09:20:01;11.60;99.90
34833;DHT22;55941;50.800;4.342;2023-04-24T09:22:30;11.50;99.90
34833;DHT22;55941;50.800;4.342;2023-04-24T09:25:22;11.50;99.90
34833;DHT22;55941;50.800;4.342;2023-04-24T09:27:48;11.50;99.90
34833;DHT22;55941;50.800;4.342;2023-04-24T09:30:21;11.40;99.90
34833;DHT22;55941;50.800;4.342;2023-04-24T09:32:47;11.40;99.90
34833;DHT22;55941;50.800;4.342;2023-04-24T09:35:14;11.50;99.90
34833;DHT22;55941;50.800;4.342;2023-04-24T09:37:44;11.50;99.90
34833;DHT22;55941;50.800;4.342;2023-04-24T09:40:21;11.50;99.90
34833;DHT22;55941;50.800;4.342;2023-04-24T09:42:55;11.50;99.90
34833;DHT22;55941;50.800;4.342;2023-04-24T09:45:35;11.80;99.90
34833;DHT22;55941;50.800;4.342;2023-04-24T09:48:03;12.00;99.90
34833;DHT22;55941;50.800;4.342;2023-04-24T09:50:31;12.10;99.90
34833;DHT22;55941;50.800;4.342;2023-04-24T09:53:04;12.10;99.90
34833;DHT22;55941;50.800;4.342;2023-04-24T09:55:31;11.90;99.90
34833;DHT22;55941;50.800;4.342;2023-04-24T09:57:58;11.80;99.90
34833;DHT22;55941;50.800;4.342;2023-04-24T10:00:31;11.70;99.90
34833;DHT22;55941;50.800;4.342;2023-04-24T10:02:59;11.70;99.90
34833;DHT22;55941;50.800;4.342;2023-04-24T10:05:31;11.60;99.90
34833;DHT22;55941;50.800;4.342;2023-04-24T10:08:02;11.70;99.90
34833;DHT22;55941;50.800;4.342;2023-04-24T10:10:30;11.70;99.90
34833;DHT22;55941;50.800;4.342;2023-04-24T10:12:57;11.90;99.90
34833;DHT22;55941;50.800;4.342;2023-04-24T10:15:24;12.00;99.90
34833;DHT22;55941;50.800;4.342;2023-04-24T10:17:51;11.60;99.90
34833;DHT22;55941;50.800;4.342;2023-04-24T10:20:24;11.60;99.90
34833;DHT22;55941;50.800;4.342;2023-04-24T10:22:51;11.70;99.90
34833;DHT22;55941;50.800;4.342;2023-04-24T10:25:22;11.90;99.90
34833;DHT22;55941;50.800;4.342;2023-04-24T10:27:49;11.90;99.90
34833;DHT22;55941;50.800;4.342;2023-04-24T10:30:20;12.00;99.90
34833;DHT22;55941;50.800;4.342;2023-04-24T10:32:46;12.00;99.90
34833;DHT22;55941;50.800;4.342;2023-04-24T10:35:14;11.90;99.90
34833;DHT22;55941;50.800;4.342;2023-04-24T10:37:44;11.80;99.90
34833;DHT22;55941;50.800;4.342;2023-04-24T10:40:11;11.60;99.90
34833;DHT22;55941;50.800;4.342;2023-04-24T10:42:40;11.60;99.90
34833;DHT22;55941;50.800;4.342;2023-04-24T10:45:24;11.60;99.90
34833;DHT22;55941;50.800;4.342;2023-04-24T10:48:05;11.90;99.90
34833;DHT22;55941;50.800;4.342;2023-04-24T10:50:52;12.00;99.90
34833;DHT22;55941;50.800;4.342;2023-04-24T10:53:21;12.00;99.90
34833;DHT22;55941;50.800;4.342;2023-04-24T10:58:45;11.90;99.90
34833;DHT22;55941;50.800;4.342;2023-04-24T11:01:33;12.10;99.90
34833;DHT22;55941;50.800;4.342;2023-04-24T11:04:00;12.20;99.90
34833;DHT22;55941;50.800;4.342;2023-04-24T11:06:32;12.10;99.90
34833;DHT22;55941;50.800;4.342;2023-04-24T11:11:31;11.80;99.90
34833;DHT22;55941;50.800;4.342;2023-04-24T11:16:28;11.70;99.90
34833;DHT22;55941;50.800;4.342;2023-04-24T11:19:17;12.00;99.90
34833;DHT22;55941;50.800;4.342;2023-04-24T11:21:59;12.20;99.90
34833;DHT22;55941;50.800;4.342;2023-04-24T11:29:46;12.30;99.90
34833;DHT22;55941;50.800;4.342;2023-04-24T11:32:23;12.40;99.90
34833;DHT22;55941;50.800;4.342;2023-04-24T11:34:58;12.70;99.90
34833;DHT22;55941;50.800;4.342;2023-04-24T11:37:27;12.90;99.90
34833;DHT22;55941;50.800;4.342;2023-04-24T11:39:57;12.80;99.90
34833;DHT22;55941;50.800;4.342;2023-04-24T11:42:24;12.60;99.90
34833;DHT22;55941;50.800;4.342;2023-04-24T11:44:55;12.60;99.90
34833;DHT22;55941;50.800;4.342;2023-04-24T11:47:31;12.80;99.90
34833;DHT22;55941;50.800;4.342;2023-04-24T11:49:59;12.80;99.90
34833;DHT22;55941;50.800;4.342;2023-04-24T11:52:29;12.80;99.90
34833;DHT22;55941;50.800;4.342;2023-04-24T11:54:55;13.00;99.90
34833;DHT22;55941;50.800;4.342;2023-04-24T11:57:23;13.50;99.90
34833;DHT22;55941;50.800;4.342;2023-04-24T11:59:49;13.60;99.90
34833;DHT22;55941;50.800;4.342;2023-04-24T12:02:25;13.90;99.90
34833;DHT22;55941;50.800;4.342;2023-04-24T12:04:52;14.20;99.90
34833;DHT22;55941;50.800;4.342;2023-04-24T12:07:18;14.60;99.90
34833;DHT22;55941;50.800;4.342;2023-04-24T12:09:46;14.90;99.90
34833;DHT22;55941;50.800;4.342;2023-04-24T12:12:15;15.20;99.90
34833;DHT22;55941;50.800;4.342;2023-04-24T12:14:52;15.10;99.90
34833;DHT22;55941;50.800;4.342;2023-04-24T12:17:30;14.50;99.90
34833;DHT22;55941;50.800;4.342;2023-04-24T12:20:01;14.10;99.90
34833;DHT22;55941;50.800;4.342;2023-04-24T12:22:43;14.00;99.90
34833;DHT22;55941;50.800;4.342;2023-04-24T12:25:11;14.10;99.90
34833;DHT22;55941;50.800;4.342;2023-04-24T12:27:37;14.20;99.90
34833;DHT22;55941;50.800;4.342;2023-04-24T12:30:05;14.50;99.90
34833;DHT22;55941;50.800;4.342;2023-04-24T12:32:31;14.10;99.90
34833;DHT22;55941;50.800;4.342;2023-04-24T12:34:57;13.80;99.90
34833;DHT22;55941;50.800;4.342;2023-04-24T12:37:25;14.00;99.90
34833;DHT22;55941;50.800;4.342;2023-04-24T12:42:30;14.90;99.90
34833;DHT22;55941;50.800;4.342;2023-04-24T12:44:57;15.50;99.90
34833;DHT22;55941;50.800;4.342;2023-04-24T12:47:24;16.10;99.90
34833;DHT22;55941;50.800;4.342;2023-04-24T12:49:50;16.60;99.90
34833;DHT22;55941;50.800;4.342;2023-04-24T12:52:19;16.80;99.90
34833;DHT22;55941;50.800;4.342;2023-04-24T12:54:49;16.80;99.90
34833;DHT22;55941;50.800;4.342;2023-04-24T12:57:15;16.60;99.90
34833;DHT22;55941;50.800;4.342;2023-04-24T12:59:41;17.10;99.90
34833;DHT22;55941;50.800;4.342;2023-04-24T13:02:07;16.50;99.90
34833;DHT22;55941;50.800;4.342;2023-04-24T13:04:34;15.90;99.90
34833;DHT22;55941;50.800;4.342;2023-04-24T13:07:01;15.40;99.90
34833;DHT22;55941;50.800;4.342;2023-04-24T13:09:30;14.90;99.90
34833;DHT22;55941;50.800;4.342;2023-04-24T13:11:56;14.80;99.90
34833;DHT22;55941;50.800;4.342;2023-04-24T13:14:23;14.90;99.90
34833;DHT22;55941;50.800;4.342;2023-04-24T13:16:52;14.80;99.90
34833;DHT22;55941;50.800;4.342;2023-04-24T13:19:19;14.50;99.90
34833;DHT22;55941;50.800;4.342;2023-04-24T13:21:45;14.80;99.90
34833;DHT22;55941;50.800;4.342;2023-04-24T13:24:12;15.30;99.90
34833;DHT22;55941;50.800;4.342;2023-04-24T13:26:40;15.20;99.90
34833;DHT22;55941;50.800;4.342;2023-04-24T13:29:06;14.90;99.90
34833;DHT22;55941;50.800;4.342;2023-04-24T13:31:32;15.00;99.90
34833;DHT22;55941;50.800;4.342;2023-04-24T13:33:58;15.10;99.90
34833;DHT22;55941;50.800;4.342;2023-04-24T13:36:24;15.40;99.90
34833;DHT22;55941;50.800;4.342;2023-04-24T13:38:50;15.50;99.90
34833;DHT22;55941;50.800;4.342;2023-04-24T13:41:18;15.80;99.90
34833;DHT22;55941;50.800;4.342;2023-04-24T13:43:47;15.50;99.90
34833;DHT22;55941;50.800;4.342;2023-04-24T13:46:14;15.50;99.90
34833;DHT22;55941;50.800;4.342;2023-04-24T13:48:42;15.90;99.90
34833;DHT22;55941;50.800;4.342;2023-04-24T13:51:08;16.10;99.90
34833;DHT22;55941;50.800;4.342;2023-04-24T13:53:37;16.30;99.90
34833;DHT22;55941;50.800;4.342;2023-04-24T13:56:04;15.80;99.90
34833;DHT22;55941;50.800;4.342;2023-04-24T13:58:35;15.50;99.90
34833;DHT22;55941;50.800;4.342;2023-04-24T14:01:08;15.20;99.90
34833;DHT22;55941;50.800;4.342;2023-04-24T14:03:37;14.80;99.90
34833;DHT22;55941;50.800;4.342;2023-04-24T14:06:04;14.80;99.90
34833;DHT22;55941;50.800;4.342;2023-04-24T14:08:31;14.70;99.90
34833;DHT22;55941;50.800;4.342;2023-04-24T14:10:58;14.40;99.90
34833;DHT22;55941;50.800;4.342;2023-04-24T14:13:25;14.20;99.90
34833;DHT22;55941;50.800;4.342;2023-04-24T14:15:54;14.00;99.90
34833;DHT22;55941;50.800;4.342;2023-04-24T14:18:23;14.10;99.90
34833;DHT22;55941;50.800;4.342;2023-04-24T14:20:51;13.80;99.90
34833;DHT22;55941;50.800;4.342;2023-04-24T14:23:16;13.70;99.90
34833;DHT22;55941;50.800;4.342;2023-04-24T14:25:42;13.50;99.90
34833;DHT22;55941;50.800;4.342;2023-04-24T14:28:09;13.50;99.90
34833;DHT22;55941;50.800;4.342;2023-04-24T14:30:36;13.40;99.90
34833;DHT22;55941;50.800;4.342;2023-04-24T14:33:03;13.50;99.90
34833;DHT22;55941;50.800;4.342;2023-04-24T14:35:31;13.40;99.90
34833;DHT22;55941;50.800;4.342;2023-04-24T14:38:02;13.40;99.90
34833;DHT22;55941;50.800;4.342;2023-04-24T14:40:28;13.40;99.90
34833;DHT22;55941;50.800;4.342;2023-04-24T14:42:54;13.10;99.90
34833;DHT22;55941;50.800;4.342;2023-04-24T14:45:19;13.10;99.90
34833;DHT22;55941;50.800;4.342;2023-04-24T14:47:46;13.10;99.90
34833;DHT22;55941;50.800;4.342;2023-04-24T14:50:12;13.00;99.90
34833;DHT22;55941;50.800;4.342;2023-04-24T14:52:39;12.90;99.90
34833;DHT22;55941;50.800;4.342;2023-04-24T14:55:05;12.90;99.90
34833;DHT22;55941;50.800;4.342;2023-04-24T14:57:34;12.90;99.90
34833;DHT22;55941;50.800;4.342;2023-04-24T15:00:04;13.00;99.90
34833;DHT22;55941;50.800;4.342;2023-04-24T15:02:38;13.10;99.90
34833;DHT22;55941;50.800;4.342;2023-04-24T15:05:07;13.20;99.90
34833;DHT22;55941;50.800;4.342;2023-04-24T15:07:33;13.30;99.90
34833;DHT22;55941;50.800;4.342;2023-04-24T15:10:01;13.40;99.90
34833;DHT22;55941;50.800;4.342;2023-04-24T15:12:27;13.40;99.90
34833;DHT22;55941;50.800;4.342;2023-04-24T15:14:55;13.40;99.90
34833;DHT22;55941;50.800;4.342;2023-04-24T15:17:26;13.40;99.90
34833;DHT22;55941;50.800;4.342;2023-04-24T15:19:58;13.20;99.90
34833;DHT22;55941;50.800;4.342;2023-04-24T15:22:26;13.00;99.90
34833;DHT22;55941;50.800;4.342;2023-04-24T15:24:54;13.00;99.90
34833;DHT22;55941;50.800;4.342;2023-04-24T15:27:24;13.00;99.90
34833;DHT22;55941;50.800;4.342;2023-04-24T15:29:56;13.00;99.90
34833;DHT22;55941;50.800;4.342;2023-04-24T15:32:26;13.20;99.90
34833;DHT22;55941;50.800;4.342;2023-04-24T15:34:52;13.30;99.90
34833;DHT22;55941;50.800;4.342;2023-04-24T15:37:18;13.40;99.90
34833;DHT22;55941;50.800;4.342;2023-04-24T15:39:46;13.20;99.90
34833;DHT22;55941;50.800;4.342;2023-04-24T15:42:12;13.30;99.90
34833;DHT22;55941;50.800;4.342;2023-04-24T15:44:38;13.20;99.90
34833;DHT22;55941;50.800;4.342;2023-04-24T15:47:06;13.10;99.90
34833;DHT22;55941;50.800;4.342;2023-04-24T15:49:34;12.90;99.90
34833;DHT22;55941;50.800;4.342;2023-04-24T15:52:06;12.80;99.90
34833;DHT22;55941;50.800;4.342;2023-04-24T15:54:34;12.80;99.90
34833;DHT22;55941;50.800;4.342;2023-04-24T15:57:03;12.70;99.90